RYR5606 EHEH-LMML
Flight info
| Callsign | RYR5606 |
|---|---|
| Flight time | N/A |
| Altitude | 37000 |
| Route | LNO5J LNO Z283 RITAX UT27 ROUSY DCT GTQ DCT POGOL DCT LASAT DCT DEVDI DCT RIPUS DCT GERSA DCT SOSON DCT ODINA DCT KALIK DCT MARON DCT EKOLA L12 GZO DCT |
| Aircraft | B738/M-SDE3/L |
Departure
| Time | N/A |
|---|---|
| Airport | Eindhoven Airport (EHEH) |
Arrival
| Time | 2026-04-30 18:31 |
|---|---|
| Airport | Malta International Airport (LMML) |
| Time | Latitude | Longitude | Altitude | Speed | Heading |
|---|---|---|---|---|---|
| 2026-04-30 17:39 | 41.34609 | 11.57777 | 37105 ft | 480 kts | 164° |
| 2026-04-30 17:42 | 41.03505 | 11.74017 | 37116 ft | 482 kts | 165° |
| 2026-04-30 17:43 | 40.87868 | 11.82119 | 37117 ft | 483 kts | 165° |
| 2026-04-30 17:44 | 40.69108 | 11.91787 | 37114 ft | 484 kts | 165° |
| 2026-04-30 17:47 | 40.40846 | 12.06241 | 37115 ft | 484 kts | 166° |
| 2026-04-30 17:48 | 40.18903 | 12.17372 | 37106 ft | 483 kts | 166° |
| 2026-04-30 17:50 | 39.93805 | 12.30010 | 37107 ft | 483 kts | 166° |
| 2026-04-30 17:52 | 39.75049 | 12.39389 | 37102 ft | 482 kts | 166° |
| 2026-04-30 17:54 | 39.46904 | 12.53361 | 37100 ft | 481 kts | 166° |
| 2026-04-30 17:56 | 39.21867 | 12.65689 | 37097 ft | 481 kts | 166° |
| 2026-04-30 17:58 | 39.04163 | 12.74350 | 37084 ft | 479 kts | 166° |
| 2026-04-30 18:00 | 38.79236 | 12.86464 | 37083 ft | 479 kts | 166° |
| 2026-04-30 18:01 | 38.63641 | 12.93997 | 37084 ft | 479 kts | 166° |
| 2026-04-30 18:02 | 38.44998 | 13.02958 | 37056 ft | 477 kts | 166° |
| 2026-04-30 18:03 | 38.35681 | 13.07419 | 36413 ft | 470 kts | 166° |
| 2026-04-30 18:04 | 38.26616 | 13.11755 | 35277 ft | 458 kts | 166° |
| 2026-04-30 18:05 | 38.14852 | 13.17349 | 33806 ft | 446 kts | 166° |
| 2026-04-30 18:06 | 38.03408 | 13.22775 | 32292 ft | 434 kts | 166° |
| 2026-04-30 18:07 | 37.92232 | 13.28057 | 30878 ft | 423 kts | 166° |
| 2026-04-30 18:08 | 37.83682 | 13.32039 | 29770 ft | 465 kts | 166° |
| 2026-04-30 18:09 | 37.70996 | 13.38010 | 27999 ft | 489 kts | 164° |
| 2026-04-30 18:10 | 37.58344 | 13.43973 | 26271 ft | 481 kts | 164° |
| 2026-04-30 18:11 | 37.45911 | 13.49767 | 24598 ft | 469 kts | 164° |
| 2026-04-30 18:11 | 37.36852 | 13.53983 | 23254 ft | 456 kts | 163° |
| 2026-04-30 18:12 | 37.28081 | 13.58051 | 21993 ft | 444 kts | 163° |
| 2026-04-30 18:13 | 37.22323 | 13.60716 | 21199 ft | 438 kts | 163° |
| 2026-04-30 18:13 | 37.14752 | 13.64214 | 20131 ft | 432 kts | 163° |
| 2026-04-30 18:14 | 37.08236 | 13.67351 | 19444 ft | 426 kts | 161° |
| 2026-04-30 18:15 | 37.00085 | 13.71608 | 18500 ft | 421 kts | 161° |
| 2026-04-30 18:15 | 36.92063 | 13.75757 | 17252 ft | 411 kts | 161° |
| 2026-04-30 18:16 | 36.86804 | 13.78452 | 16464 ft | 406 kts | 161° |
| 2026-04-30 18:16 | 36.81582 | 13.81122 | 15688 ft | 404 kts | 160° |
| 2026-04-30 18:17 | 36.78986 | 13.82448 | 15315 ft | 403 kts | 160° |
| 2026-04-30 18:17 | 36.76391 | 13.83774 | 14928 ft | 402 kts | 160° |
| 2026-04-30 18:17 | 36.71223 | 13.86413 | 14158 ft | 402 kts | 161° |
| 2026-04-30 18:18 | 36.68625 | 13.87734 | 13733 ft | 402 kts | 160° |
| 2026-04-30 18:18 | 36.66128 | 13.89001 | 13327 ft | 402 kts | 160° |
| 2026-04-30 18:18 | 36.63452 | 13.90361 | 12910 ft | 400 kts | 160° |
| 2026-04-30 18:18 | 36.60888 | 13.91668 | 12516 ft | 393 kts | 160° |
| 2026-04-30 18:19 | 36.58413 | 13.92930 | 12128 ft | 385 kts | 160° |
| 2026-04-30 18:19 | 36.55962 | 13.94177 | 11759 ft | 377 kts | 160° |
| 2026-04-30 18:19 | 36.53557 | 13.95398 | 11407 ft | 369 kts | 160° |
| 2026-04-30 18:19 | 36.51200 | 13.96593 | 11058 ft | 362 kts | 160° |
| 2026-04-30 18:20 | 36.48900 | 13.97815 | 10749 ft | 356 kts | 157° |
| 2026-04-30 18:20 | 36.46703 | 13.99175 | 10447 ft | 349 kts | 154° |
| 2026-04-30 18:20 | 36.44566 | 14.00573 | 10166 ft | 343 kts | 154° |
| 2026-04-30 18:20 | 36.42486 | 14.01948 | 9999 ft | 334 kts | 154° |
| 2026-04-30 18:21 | 36.40473 | 14.03272 | 9979 ft | 319 kts | 154° |
| 2026-04-30 18:21 | 36.38551 | 14.04527 | 9945 ft | 306 kts | 154° |
| 2026-04-30 18:21 | 36.36714 | 14.05718 | 9817 ft | 298 kts | 154° |
| 2026-04-30 18:21 | 36.34900 | 14.06888 | 9436 ft | 292 kts | 154° |
| 2026-04-30 18:22 | 36.33074 | 14.08061 | 8920 ft | 291 kts | 154° |
| 2026-04-30 18:22 | 36.29501 | 14.10346 | 7982 ft | 289 kts | 154° |
| 2026-04-30 18:22 | 36.27712 | 14.11488 | 7658 ft | 289 kts | 154° |
| 2026-04-30 18:23 | 36.25932 | 14.12623 | 7373 ft | 288 kts | 154° |
| 2026-04-30 18:23 | 36.24210 | 14.13724 | 7107 ft | 286 kts | 154° |
| 2026-04-30 18:23 | 36.22390 | 14.14889 | 6830 ft | 285 kts | 153° |
| 2026-04-30 18:23 | 36.20631 | 14.16015 | 6543 ft | 284 kts | 153° |
| 2026-04-30 18:24 | 36.17132 | 14.18251 | 5950 ft | 282 kts | 153° |
| 2026-04-30 18:24 | 36.15393 | 14.19360 | 5664 ft | 280 kts | 153° |
| 2026-04-30 18:24 | 36.13664 | 14.20462 | 5392 ft | 279 kts | 153° |
| 2026-04-30 18:25 | 36.11950 | 14.21554 | 5184 ft | 274 kts | 153° |
| 2026-04-30 18:25 | 36.08666 | 14.23645 | 4931 ft | 260 kts | 153° |
| 2026-04-30 18:25 | 36.07075 | 14.24658 | 4817 ft | 254 kts | 153° |
| 2026-04-30 18:26 | 36.04010 | 14.26605 | 4561 ft | 242 kts | 152° |
| 2026-04-30 18:26 | 36.02516 | 14.27553 | 4338 ft | 241 kts | 152° |
| 2026-04-30 18:26 | 36.01060 | 14.28555 | 4107 ft | 238 kts | 142° |
| 2026-04-30 18:27 | 35.98819 | 14.31485 | 3750 ft | 229 kts | 133° |
| 2026-04-30 18:27 | 35.97697 | 14.32871 | 3523 ft | 229 kts | 133° |
| 2026-04-30 18:28 | 35.95451 | 14.35650 | 2967 ft | 224 kts | 133° |
| 2026-04-30 18:28 | 35.94374 | 14.36992 | 2654 ft | 216 kts | 132° |
| 2026-04-30 18:28 | 35.92350 | 14.39509 | 2117 ft | 200 kts | 132° |
| 2026-04-30 18:29 | 35.91381 | 14.40716 | 1875 ft | 195 kts | 133° |
| 2026-04-30 18:29 | 35.88834 | 14.43891 | 1141 ft | 160 kts | 132° |
| 2026-04-30 18:30 | 35.87544 | 14.45512 | 780 ft | 157 kts | 132° |
| 2026-04-30 18:30 | 35.85824 | 14.47650 | 362 ft | 147 kts | 132° |
| 2026-04-30 18:31 | 35.85128 | 14.48519 | 272 ft | 130 kts | 135° |
| 2026-04-30 18:31 | 35.84465 | 14.49423 | 258 ft | 33 kts | 112° |
| 2026-04-30 18:32 | 35.84527 | 14.49560 | 258 ft | 6 kts | 323° |
| 2026-04-30 18:32 | 35.84551 | 14.49534 | 258 ft | 4 kts | 317° |
| 2026-04-30 18:32 | 35.84594 | 14.49542 | 258 ft | 4 kts | 43° |
| 2026-04-30 18:33 | 35.84613 | 14.49564 | 258 ft | 4 kts | 44° |
| 2026-04-30 18:33 | 35.84709 | 14.49544 | 258 ft | 11 kts | 321° |
| 2026-04-30 18:33 | 35.84761 | 14.49481 | 258 ft | 7 kts | 314° |
| 2026-04-30 18:34 | 35.84805 | 14.49457 | 258 ft | 7 kts | 350° |
| 2026-04-30 18:34 | 35.84859 | 14.49455 | 258 ft | 0 kts | 359° |